sensor_id;sensor_type;location;lat;lon;timestamp;temperature;humidity
4910;DHT22;2470;49.868;8.660;2024-03-02T00:00:20;7.70;99.90
4910;DHT22;2470;49.868;8.660;2024-03-02T00:02:48;7.60;99.90
4910;DHT22;2470;49.868;8.660;2024-03-02T00:05:18;7.60;99.90
4910;DHT22;2470;49.868;8.660;2024-03-02T00:07:47;7.60;99.90
4910;DHT22;2470;49.868;8.660;2024-03-02T00:10:20;7.70;99.90
4910;DHT22;2470;49.868;8.660;2024-03-02T00:12:48;7.60;99.90
4910;DHT22;2470;49.868;8.660;2024-03-02T00:17:53;7.60;99.90
4910;DHT22;2470;49.868;8.660;2024-03-02T00:20:22;7.60;99.90
4910;DHT22;2470;49.868;8.660;2024-03-02T00:22:48;7.60;99.90
4910;DHT22;2470;49.868;8.660;2024-03-02T00:25:13;7.60;99.90
4910;DHT22;2470;49.868;8.660;2024-03-02T00:27:39;7.60;99.90
4910;DHT22;2470;49.868;8.660;2024-03-02T00:30:27;7.60;99.90
4910;DHT22;2470;49.868;8.660;2024-03-02T00:33:01;7.50;99.90
4910;DHT22;2470;49.868;8.660;2024-03-02T00:35:27;7.50;99.90
4910;DHT22;2470;49.868;8.660;2024-03-02T00:37:55;7.50;99.90
4910;DHT22;2470;49.868;8.660;2024-03-02T00:40:29;7.40;99.90
4910;DHT22;2470;49.868;8.660;2024-03-02T00:42:56;7.40;99.90
4910;DHT22;2470;49.868;8.660;2024-03-02T00:45:21;7.40;99.90
4910;DHT22;2470;49.868;8.660;2024-03-02T00:47:47;7.40;99.90
4910;DHT22;2470;49.868;8.660;2024-03-02T00:50:13;7.40;99.90
4910;DHT22;2470;49.868;8.660;2024-03-02T00:52:40;7.40;99.90
4910;DHT22;2470;49.868;8.660;2024-03-02T00:55:06;7.40;99.90
4910;DHT22;2470;49.868;8.660;2024-03-02T00:57:34;7.40;99.90
4910;DHT22;2470;49.868;8.660;2024-03-02T01:00:00;7.40;99.90
4910;DHT22;2470;49.868;8.660;2024-03-02T01:02:25;7.40;99.90
4910;DHT22;2470;49.868;8.660;2024-03-02T01:04:51;7.30;99.90
4910;DHT22;2470;49.868;8.660;2024-03-02T01:07:16;7.30;99.90
4910;DHT22;2470;49.868;8.660;2024-03-02T01:09:42;7.20;99.90
4910;DHT22;2470;49.868;8.660;2024-03-02T01:12:07;7.20;99.90
4910;DHT22;2470;49.868;8.660;2024-03-02T01:14:33;7.20;99.90
4910;DHT22;2470;49.868;8.660;2024-03-02T01:16:58;7.20;99.90
4910;DHT22;2470;49.868;8.660;2024-03-02T01:19:23;7.20;99.90
4910;DHT22;2470;49.868;8.660;2024-03-02T01:21:49;7.20;99.90
4910;DHT22;2470;49.868;8.660;2024-03-02T01:24:16;7.20;99.90
4910;DHT22;2470;49.868;8.660;2024-03-02T01:26:42;7.20;99.90
4910;DHT22;2470;49.868;8.660;2024-03-02T01:29:07;7.20;99.90
4910;DHT22;2470;49.868;8.660;2024-03-02T01:31:33;7.10;99.90
4910;DHT22;2470;49.868;8.660;2024-03-02T01:33:58;7.20;99.90
4910;DHT22;2470;49.868;8.660;2024-03-02T01:36:24;7.20;99.90
4910;DHT22;2470;49.868;8.660;2024-03-02T01:38:49;7.10;99.90
4910;DHT22;2470;49.868;8.660;2024-03-02T01:41:15;7.10;99.90
4910;DHT22;2470;49.868;8.660;2024-03-02T01:43:41;7.10;99.90
4910;DHT22;2470;49.868;8.660;2024-03-02T01:46:06;7.00;99.90
4910;DHT22;2470;49.868;8.660;2024-03-02T01:48:32;7.00;99.90
4910;DHT22;2470;49.868;8.660;2024-03-02T01:50:57;7.00;99.90
4910;DHT22;2470;49.868;8.660;2024-03-02T01:53:23;7.10;99.90
4910;DHT22;2470;49.868;8.660;2024-03-02T01:55:49;7.00;99.90
4910;DHT22;2470;49.868;8.660;2024-03-02T01:58:14;7.00;99.90
4910;DHT22;2470;49.868;8.660;2024-03-02T02:00:40;7.00;99.90
4910;DHT22;2470;49.868;8.660;2024-03-02T02:03:05;7.00;99.90
4910;DHT22;2470;49.868;8.660;2024-03-02T02:05:32;7.00;99.90
4910;DHT22;2470;49.868;8.660;2024-03-02T02:07:58;7.10;99.90
4910;DHT22;2470;49.868;8.660;2024-03-02T02:10:24;7.10;99.90
4910;DHT22;2470;49.868;8.660;2024-03-02T02:12:49;7.10;99.90
4910;DHT22;2470;49.868;8.660;2024-03-02T02:15:25;7.00;99.90
4910;DHT22;2470;49.868;8.660;2024-03-02T02:17:51;7.00;99.90
4910;DHT22;2470;49.868;8.660;2024-03-02T02:20:17;7.00;99.90
4910;DHT22;2470;49.868;8.660;2024-03-02T02:23:02;7.00;99.90
4910;DHT22;2470;49.868;8.660;2024-03-02T02:25:29;7.00;99.90
4910;DHT22;2470;49.868;8.660;2024-03-02T02:27:54;7.00;99.90
4910;DHT22;2470;49.868;8.660;2024-03-02T02:30:29;7.00;99.90
4910;DHT22;2470;49.868;8.660;2024-03-02T02:32:55;6.90;99.90
4910;DHT22;2470;49.868;8.660;2024-03-02T02:35:21;6.90;99.90
4910;DHT22;2470;49.868;8.660;2024-03-02T02:37:47;6.90;99.90
4910;DHT22;2470;49.868;8.660;2024-03-02T02:40:14;6.90;99.90
4910;DHT22;2470;49.868;8.660;2024-03-02T02:42:40;6.90;99.90
4910;DHT22;2470;49.868;8.660;2024-03-02T02:45:06;6.90;99.90
4910;DHT22;2470;49.868;8.660;2024-03-02T02:47:32;6.80;99.90
4910;DHT22;2470;49.868;8.660;2024-03-02T02:50:01;6.80;99.90
4910;DHT22;2470;49.868;8.660;2024-03-02T02:52:31;6.80;99.90
4910;DHT22;2470;49.868;8.660;2024-03-02T02:54:58;6.80;99.90
4910;DHT22;2470;49.868;8.660;2024-03-02T02:57:24;6.80;99.90
4910;DHT22;2470;49.868;8.660;2024-03-02T02:59:49;6.80;99.90
4910;DHT22;2470;49.868;8.660;2024-03-02T03:02:15;6.80;99.90
4910;DHT22;2470;49.868;8.660;2024-03-02T03:04:40;6.80;99.90
4910;DHT22;2470;49.868;8.660;2024-03-02T03:07:06;6.70;99.90
4910;DHT22;2470;49.868;8.660;2024-03-02T03:09:31;6.70;99.90
4910;DHT22;2470;49.868;8.660;2024-03-02T03:11:57;6.80;99.90
4910;DHT22;2470;49.868;8.660;2024-03-02T03:14:22;6.70;99.90
4910;DHT22;2470;49.868;8.660;2024-03-02T03:16:48;6.70;99.90
4910;DHT22;2470;49.868;8.660;2024-03-02T03:19:14;6.70;99.90
4910;DHT22;2470;49.868;8.660;2024-03-02T03:21:39;6.70;99.90
4910;DHT22;2470;49.868;8.660;2024-03-02T03:24:05;6.70;99.90
4910;DHT22;2470;49.868;8.660;2024-03-02T03:26:30;6.70;99.90
4910;DHT22;2470;49.868;8.660;2024-03-02T03:28:55;6.70;99.90
4910;DHT22;2470;49.868;8.660;2024-03-02T03:31:21;6.80;99.90
4910;DHT22;2470;49.868;8.660;2024-03-02T03:33:46;6.90;99.90
4910;DHT22;2470;49.868;8.660;2024-03-02T03:36:12;6.90;99.90
4910;DHT22;2470;49.868;8.660;2024-03-02T03:38:37;7.00;99.90
4910;DHT22;2470;49.868;8.660;2024-03-02T03:41:03;7.00;99.90
4910;DHT22;2470;49.868;8.660;2024-03-02T03:43:29;7.20;99.90
4910;DHT22;2470;49.868;8.660;2024-03-02T03:45:54;7.20;99.90
4910;DHT22;2470;49.868;8.660;2024-03-02T03:48:20;7.30;99.90
4910;DHT22;2470;49.868;8.660;2024-03-02T03:50:45;7.30;99.90
4910;DHT22;2470;49.868;8.660;2024-03-02T03:53:11;7.40;99.90
4910;DHT22;2470;49.868;8.660;2024-03-02T03:55:37;7.40;99.90
4910;DHT22;2470;49.868;8.660;2024-03-02T03:58:02;7.40;99.90
4910;DHT22;2470;49.868;8.660;2024-03-02T04:00:28;7.50;99.90
4910;DHT22;2470;49.868;8.660;2024-03-02T04:02:53;7.50;99.90
4910;DHT22;2470;49.868;8.660;2024-03-02T04:05:19;7.60;99.90
4910;DHT22;2470;49.868;8.660;2024-03-02T04:07:44;7.50;99.90
4910;DHT22;2470;49.868;8.660;2024-03-02T04:10:10;7.50;99.90
4910;DHT22;2470;49.868;8.660;2024-03-02T04:12:37;7.40;99.90
4910;DHT22;2470;49.868;8.660;2024-03-02T04:15:04;7.30;99.90
4910;DHT22;2470;49.868;8.660;2024-03-02T04:17:32;7.20;99.90
4910;DHT22;2470;49.868;8.660;2024-03-02T04:19:58;7.20;99.90
4910;DHT22;2470;49.868;8.660;2024-03-02T04:22:24;7.10;99.90
4910;DHT22;2470;49.868;8.660;2024-03-02T04:24:49;7.10;99.90
4910;DHT22;2470;49.868;8.660;2024-03-02T04:27:15;7.10;99.90
4910;DHT22;2470;49.868;8.660;2024-03-02T04:29:40;7.10;99.90
4910;DHT22;2470;49.868;8.660;2024-03-02T04:32:06;7.10;99.90
4910;DHT22;2470;49.868;8.660;2024-03-02T04:34:32;7.10;99.90
4910;DHT22;2470;49.868;8.660;2024-03-02T04:36:57;7.00;99.90
4910;DHT22;2470;49.868;8.660;2024-03-02T04:39:22;7.00;99.90
4910;DHT22;2470;49.868;8.660;2024-03-02T04:41:48;7.00;99.90
4910;DHT22;2470;49.868;8.660;2024-03-02T04:44:13;7.00;99.90
4910;DHT22;2470;49.868;8.660;2024-03-02T04:46:39;7.00;99.90
4910;DHT22;2470;49.868;8.660;2024-03-02T04:49:04;7.00;99.90
4910;DHT22;2470;49.868;8.660;2024-03-02T04:51:30;7.00;99.90
4910;DHT22;2470;49.868;8.660;2024-03-02T04:53:55;6.90;99.90
4910;DHT22;2470;49.868;8.660;2024-03-02T04:56:21;6.90;99.90
4910;DHT22;2470;49.868;8.660;2024-03-02T04:59:06;6.90;99.90
4910;DHT22;2470;49.868;8.660;2024-03-02T05:01:32;6.80;99.90
4910;DHT22;2470;49.868;8.660;2024-03-02T05:03:58;6.80;99.90
4910;DHT22;2470;49.868;8.660;2024-03-02T05:06:24;6.80;99.90
4910;DHT22;2470;49.868;8.660;2024-03-02T05:08:52;6.80;99.90
4910;DHT22;2470;49.868;8.660;2024-03-02T05:11:18;6.70;99.90
4910;DHT22;2470;49.868;8.660;2024-03-02T05:14:03;6.70;99.90
4910;DHT22;2470;49.868;8.660;2024-03-02T05:16:28;6.70;99.90
4910;DHT22;2470;49.868;8.660;2024-03-02T05:18:54;6.60;99.90
4910;DHT22;2470;49.868;8.660;2024-03-02T05:21:19;6.60;99.90
4910;DHT22;2470;49.868;8.660;2024-03-02T05:23:45;6.60;99.90
4910;DHT22;2470;49.868;8.660;2024-03-02T05:26:10;6.60;99.90
4910;DHT22;2470;49.868;8.660;2024-03-02T05:28:39;6.60;99.90
4910;DHT22;2470;49.868;8.660;2024-03-02T05:31:05;6.60;99.90
4910;DHT22;2470;49.868;8.660;2024-03-02T05:33:30;6.60;99.90
4910;DHT22;2470;49.868;8.660;2024-03-02T05:35:58;6.60;99.90
4910;DHT22;2470;49.868;8.660;2024-03-02T05:38:23;6.60;99.90
4910;DHT22;2470;49.868;8.660;2024-03-02T05:40:49;6.50;99.90
4910;DHT22;2470;49.868;8.660;2024-03-02T05:43:14;6.50;99.90
4910;DHT22;2470;49.868;8.660;2024-03-02T05:45:40;6.40;99.90
4910;DHT22;2470;49.868;8.660;2024-03-02T05:48:09;6.50;99.90
4910;DHT22;2470;49.868;8.660;2024-03-02T05:50:35;6.50;99.90
4910;DHT22;2470;49.868;8.660;2024-03-02T05:53:00;6.50;99.90
4910;DHT22;2470;49.868;8.660;2024-03-02T05:55:26;6.50;99.90
4910;DHT22;2470;49.868;8.660;2024-03-02T05:57:51;6.50;99.90
4910;DHT22;2470;49.868;8.660;2024-03-02T06:00:37;6.50;99.90
4910;DHT22;2470;49.868;8.660;2024-03-02T06:03:04;6.50;99.90
4910;DHT22;2470;49.868;8.660;2024-03-02T06:05:29;6.50;99.90
4910;DHT22;2470;49.868;8.660;2024-03-02T06:07:55;6.50;99.90
4910;DHT22;2470;49.868;8.660;2024-03-02T06:10:20;6.50;99.90
4910;DHT22;2470;49.868;8.660;2024-03-02T06:12:46;6.50;99.90
4910;DHT22;2470;49.868;8.660;2024-03-02T06:15:11;6.50;99.90
4910;DHT22;2470;49.868;8.660;2024-03-02T06:17:37;6.50;99.90
4910;DHT22;2470;49.868;8.660;2024-03-02T06:20:03;6.50;99.90
4910;DHT22;2470;49.868;8.660;2024-03-02T06:22:28;6.60;99.90
4910;DHT22;2470;49.868;8.660;2024-03-02T06:24:54;6.60;99.90
4910;DHT22;2470;49.868;8.660;2024-03-02T06:27:20;6.60;99.90
4910;DHT22;2470;49.868;8.660;2024-03-02T06:29:45;6.60;99.90
4910;DHT22;2470;49.868;8.660;2024-03-02T06:32:11;6.70;99.90
4910;DHT22;2470;49.868;8.660;2024-03-02T06:34:36;6.80;99.90
4910;DHT22;2470;49.868;8.660;2024-03-02T06:37:02;6.80;99.90
4910;DHT22;2470;49.868;8.660;2024-03-02T06:39:27;6.80;99.90
4910;DHT22;2470;49.868;8.660;2024-03-02T06:41:53;6.90;99.90
4910;DHT22;2470;49.868;8.660;2024-03-02T06:44:18;6.90;99.90
4910;DHT22;2470;49.868;8.660;2024-03-02T06:46:44;6.90;99.90
4910;DHT22;2470;49.868;8.660;2024-03-02T06:49:09;6.90;99.90
4910;DHT22;2470;49.868;8.660;2024-03-02T06:51:36;6.80;99.90
4910;DHT22;2470;49.868;8.660;2024-03-02T06:54:01;6.80;99.90
4910;DHT22;2470;49.868;8.660;2024-03-02T06:56:27;6.80;99.90
4910;DHT22;2470;49.868;8.660;2024-03-02T06:58:52;6.90;99.90
4910;DHT22;2470;49.868;8.660;2024-03-02T07:01:18;6.80;99.90
4910;DHT22;2470;49.868;8.660;2024-03-02T07:03:45;6.90;99.90
4910;DHT22;2470;49.868;8.660;2024-03-02T07:06:11;6.90;99.90
4910;DHT22;2470;49.868;8.660;2024-03-02T07:08:36;6.90;99.90
4910;DHT22;2470;49.868;8.660;2024-03-02T07:11:02;7.00;99.90
4910;DHT22;2470;49.868;8.660;2024-03-02T07:13:27;7.00;99.90
4910;DHT22;2470;49.868;8.660;2024-03-02T07:15:53;7.00;99.90
4910;DHT22;2470;49.868;8.660;2024-03-02T07:18:37;7.00;99.90
4910;DHT22;2470;49.868;8.660;2024-03-02T07:21:07;7.10;99.90
4910;DHT22;2470;49.868;8.660;2024-03-02T07:23:32;7.00;99.90
4910;DHT22;2470;49.868;8.660;2024-03-02T07:25:59;7.00;99.90
4910;DHT22;2470;49.868;8.660;2024-03-02T07:28:27;7.10;99.90
4910;DHT22;2470;49.868;8.660;2024-03-02T07:30:59;7.00;99.90
4910;DHT22;2470;49.868;8.660;2024-03-02T07:33:25;7.00;99.90
4910;DHT22;2470;49.868;8.660;2024-03-02T07:35:50;7.00;99.90
4910;DHT22;2470;49.868;8.660;2024-03-02T07:38:16;7.00;99.90
4910;DHT22;2470;49.868;8.660;2024-03-02T07:40:42;7.00;99.90
4910;DHT22;2470;49.868;8.660;2024-03-02T07:43:08;7.00;99.90
4910;DHT22;2470;49.868;8.660;2024-03-02T07:45:34;7.10;99.90
4910;DHT22;2470;49.868;8.660;2024-03-02T07:48:01;7.10;99.90
4910;DHT22;2470;49.868;8.660;2024-03-02T07:50:28;7.10;99.90
4910;DHT22;2470;49.868;8.660;2024-03-02T07:52:54;7.10;99.90
4910;DHT22;2470;49.868;8.660;2024-03-02T07:55:19;7.30;99.90
4910;DHT22;2470;49.868;8.660;2024-03-02T07:57:45;7.40;99.90
4910;DHT22;2470;49.868;8.660;2024-03-02T08:00:11;7.50;99.90
4910;DHT22;2470;49.868;8.660;2024-03-02T08:02:36;7.70;99.90
4910;DHT22;2470;49.868;8.660;2024-03-02T08:05:02;7.80;99.90
4910;DHT22;2470;49.868;8.660;2024-03-02T08:07:27;7.90;99.90
4910;DHT22;2470;49.868;8.660;2024-03-02T08:09:53;8.00;99.90
4910;DHT22;2470;49.868;8.660;2024-03-02T08:12:18;8.10;99.90
4910;DHT22;2470;49.868;8.660;2024-03-02T08:14:45;8.30;99.90
4910;DHT22;2470;49.868;8.660;2024-03-02T08:17:10;8.30;99.90
4910;DHT22;2470;49.868;8.660;2024-03-02T08:19:37;8.40;99.90
4910;DHT22;2470;49.868;8.660;2024-03-02T08:22:03;8.40;99.90
4910;DHT22;2470;49.868;8.660;2024-03-02T08:24:29;8.50;99.90
4910;DHT22;2470;49.868;8.660;2024-03-02T08:26:54;8.70;99.90
4910;DHT22;2470;49.868;8.660;2024-03-02T08:29:20;8.80;99.90
4910;DHT22;2470;49.868;8.660;2024-03-02T08:31:45;8.90;99.90
4910;DHT22;2470;49.868;8.660;2024-03-02T08:34:10;8.90;99.90
4910;DHT22;2470;49.868;8.660;2024-03-02T08:36:36;9.10;99.90
4910;DHT22;2470;49.868;8.660;2024-03-02T08:39:02;9.30;99.90
4910;DHT22;2470;49.868;8.660;2024-03-02T08:41:28;9.30;99.90
4910;DHT22;2470;49.868;8.660;2024-03-02T08:43:54;9.40;99.90
4910;DHT22;2470;49.868;8.660;2024-03-02T08:46:19;9.30;99.90
4910;DHT22;2470;49.868;8.660;2024-03-02T08:48:45;9.30;99.90
4910;DHT22;2470;49.868;8.660;2024-03-02T08:51:10;9.40;99.90
4910;DHT22;2470;49.868;8.660;2024-03-02T08:53:36;9.40;99.90
4910;DHT22;2470;49.868;8.660;2024-03-02T08:56:03;9.50;99.90
4910;DHT22;2470;49.868;8.660;2024-03-02T08:58:31;9.60;99.90
4910;DHT22;2470;49.868;8.660;2024-03-02T09:00:56;9.70;99.90
4910;DHT22;2470;49.868;8.660;2024-03-02T09:03:22;9.70;99.90
4910;DHT22;2470;49.868;8.660;2024-03-02T09:05:47;9.80;99.90
4910;DHT22;2470;49.868;8.660;2024-03-02T09:08:13;9.90;99.90
4910;DHT22;2470;49.868;8.660;2024-03-02T09:10:38;10.00;99.90
4910;DHT22;2470;49.868;8.660;2024-03-02T09:13:05;10.10;99.90
4910;DHT22;2470;49.868;8.660;2024-03-02T09:15:30;10.30;99.90
4910;DHT22;2470;49.868;8.660;2024-03-02T09:17:56;10.40;99.90
4910;DHT22;2470;49.868;8.660;2024-03-02T09:20:21;10.50;99.90
4910;DHT22;2470;49.868;8.660;2024-03-02T09:22:48;10.60;99.90
4910;DHT22;2470;49.868;8.660;2024-03-02T09:25:14;10.70;99.90
4910;DHT22;2470;49.868;8.660;2024-03-02T09:27:40;10.70;99.90
4910;DHT22;2470;49.868;8.660;2024-03-02T09:30:08;10.80;99.90
4910;DHT22;2470;49.868;8.660;2024-03-02T09:32:34;10.90;99.90
4910;DHT22;2470;49.868;8.660;2024-03-02T09:34:59;10.90;99.90
4910;DHT22;2470;49.868;8.660;2024-03-02T09:37:26;11.00;99.90
4910;DHT22;2470;49.868;8.660;2024-03-02T09:39:52;11.00;99.90
4910;DHT22;2470;49.868;8.660;2024-03-02T09:42:17;11.10;99.90
4910;DHT22;2470;49.868;8.660;2024-03-02T09:44:47;11.00;99.90
4910;DHT22;2470;49.868;8.660;2024-03-02T09:47:28;11.10;99.90
4910;DHT22;2470;49.868;8.660;2024-03-02T09:49:54;11.30;99.90
4910;DHT22;2470;49.868;8.660;2024-03-02T09:52:22;11.40;99.90
4910;DHT22;2470;49.868;8.660;2024-03-02T09:54:48;11.50;99.90
4910;DHT22;2470;49.868;8.660;2024-03-02T09:57:14;11.60;99.90
4910;DHT22;2470;49.868;8.660;2024-03-02T09:59:40;11.70;99.90
4910;DHT22;2470;49.868;8.660;2024-03-02T10:02:05;11.80;99.90
4910;DHT22;2470;49.868;8.660;2024-03-02T10:04:32;11.90;99.90
4910;DHT22;2470;49.868;8.660;2024-03-02T10:07:16;12.00;99.90
4910;DHT22;2470;49.868;8.660;2024-03-02T10:09:42;12.10;99.90
4910;DHT22;2470;49.868;8.660;2024-03-02T10:12:10;12.30;99.90
4910;DHT22;2470;49.868;8.660;2024-03-02T10:14:37;12.40;99.90
4910;DHT22;2470;49.868;8.660;2024-03-02T10:17:13;12.60;99.90
4910;DHT22;2470;49.868;8.660;2024-03-02T10:19:39;12.80;99.90
4910;DHT22;2470;49.868;8.660;2024-03-02T10:22:09;12.90;99.90
4910;DHT22;2470;49.868;8.660;2024-03-02T10:24:39;13.00;99.90
4910;DHT22;2470;49.868;8.660;2024-03-02T10:27:26;13.10;99.90
4910;DHT22;2470;49.868;8.660;2024-03-02T10:29:53;13.20;99.90
4910;DHT22;2470;49.868;8.660;2024-03-02T10:32:22;13.20;99.90
4910;DHT22;2470;49.868;8.660;2024-03-02T10:34:48;13.30;99.90
4910;DHT22;2470;49.868;8.660;2024-03-02T10:37:15;13.20;99.90
4910;DHT22;2470;49.868;8.660;2024-03-02T10:39:42;13.30;99.90
4910;DHT22;2470;49.868;8.660;2024-03-02T10:42:08;13.40;99.90
4910;DHT22;2470;49.868;8.660;2024-03-02T10:44:34;13.50;99.90
4910;DHT22;2470;49.868;8.660;2024-03-02T10:47:01;13.40;99.90
4910;DHT22;2470;49.868;8.660;2024-03-02T10:49:30;13.30;99.90
4910;DHT22;2470;49.868;8.660;2024-03-02T10:51:56;13.40;99.90
4910;DHT22;2470;49.868;8.660;2024-03-02T10:54:22;13.40;99.90
4910;DHT22;2470;49.868;8.660;2024-03-02T10:56:53;13.20;99.90
4910;DHT22;2470;49.868;8.660;2024-03-02T10:59:33;13.10;99.90
4910;DHT22;2470;49.868;8.660;2024-03-02T11:05:36;13.10;99.90
4910;DHT22;2470;49.868;8.660;2024-03-02T11:08:09;13.20;99.90
4910;DHT22;2470;49.868;8.660;2024-03-02T11:10:42;13.20;99.90
4910;DHT22;2470;49.868;8.660;2024-03-02T11:13:11;13.20;99.70
4910;DHT22;2470;49.868;8.660;2024-03-02T11:15:40;13.30;99.90
4910;DHT22;2470;49.868;8.660;2024-03-02T11:18:06;13.40;99.90
4910;DHT22;2470;49.868;8.660;2024-03-02T11:20:36;13.50;99.90
4910;DHT22;2470;49.868;8.660;2024-03-02T11:23:07;13.60;99.90
4910;DHT22;2470;49.868;8.660;2024-03-02T11:25:33;13.70;99.90
4910;DHT22;2470;49.868;8.660;2024-03-02T11:28:01;14.00;99.90
4910;DHT22;2470;49.868;8.660;2024-03-02T11:33:04;14.70;99.90
4910;DHT22;2470;49.868;8.660;2024-03-02T11:35:36;15.00;99.50
4910;DHT22;2470;49.868;8.660;2024-03-02T11:38:02;15.20;98.10
4910;DHT22;2470;49.868;8.660;2024-03-02T11:40:29;15.30;97.70
4910;DHT22;2470;49.868;8.660;2024-03-02T11:42:55;15.40;97.30
4910;DHT22;2470;49.868;8.660;2024-03-02T11:45:24;15.40;96.60
4910;DHT22;2470;49.868;8.660;2024-03-02T11:47:50;15.40;95.60
4910;DHT22;2470;49.868;8.660;2024-03-02T11:50:28;15.40;94.90
4910;DHT22;2470;49.868;8.660;2024-03-02T11:52:54;15.40;94.30
4910;DHT22;2470;49.868;8.660;2024-03-02T11:55:21;15.60;94.10
4910;DHT22;2470;49.868;8.660;2024-03-02T11:57:47;15.80;93.80
4910;DHT22;2470;49.868;8.660;2024-03-02T12:00:20;15.90;93.70
4910;DHT22;2470;49.868;8.660;2024-03-02T12:02:46;15.90;93.60
4910;DHT22;2470;49.868;8.660;2024-03-02T12:05:15;16.00;92.30
4910;DHT22;2470;49.868;8.660;2024-03-02T12:07:42;16.10;92.50
4910;DHT22;2470;49.868;8.660;2024-03-02T12:10:08;16.20;92.20
4910;DHT22;2470;49.868;8.660;2024-03-02T12:12:34;16.10;91.70
4910;DHT22;2470;49.868;8.660;2024-03-02T12:15:00;16.10;90.80
4910;DHT22;2470;49.868;8.660;2024-03-02T12:17:26;16.10;90.40
4910;DHT22;2470;49.868;8.660;2024-03-02T12:19:51;16.00;89.40
4910;DHT22;2470;49.868;8.660;2024-03-02T12:22:18;16.10;90.30
4910;DHT22;2470;49.868;8.660;2024-03-02T12:24:44;16.30;90.70
4910;DHT22;2470;49.868;8.660;2024-03-02T12:27:15;16.80;90.00
4910;DHT22;2470;49.868;8.660;2024-03-02T12:29:41;17.50;90.20
4910;DHT22;2470;49.868;8.660;2024-03-02T12:32:07;18.00;91.40
4910;DHT22;2470;49.868;8.660;2024-03-02T12:34:32;18.50;87.30
4910;DHT22;2470;49.868;8.660;2024-03-02T12:36:58;18.80;84.40
4910;DHT22;2470;49.868;8.660;2024-03-02T12:39:23;19.50;82.70
4910;DHT22;2470;49.868;8.660;2024-03-02T12:41:50;19.70;79.90
4910;DHT22;2470;49.868;8.660;2024-03-02T12:44:16;19.90;80.40
4910;DHT22;2470;49.868;8.660;2024-03-02T12:46:42;20.20;77.70
4910;DHT22;2470;49.868;8.660;2024-03-02T12:49:10;20.50;79.50
4910;DHT22;2470;49.868;8.660;2024-03-02T12:51:39;20.90;76.60
4910;DHT22;2470;49.868;8.660;2024-03-02T12:54:09;21.40;76.20
4910;DHT22;2470;49.868;8.660;2024-03-02T12:56:36;22.30;74.00
4910;DHT22;2470;49.868;8.660;2024-03-02T12:59:03;22.80;73.00
4910;DHT22;2470;49.868;8.660;2024-03-02T13:01:28;23.30;70.10
4910;DHT22;2470;49.868;8.660;2024-03-02T13:03:54;23.80;66.30
4910;DHT22;2470;49.868;8.660;2024-03-02T13:06:21;24.30;61.90
4910;DHT22;2470;49.868;8.660;2024-03-02T13:08:47;24.50;62.50
4910;DHT22;2470;49.868;8.660;2024-03-02T13:11:13;25.20;62.10
4910;DHT22;2470;49.868;8.660;2024-03-02T13:13:39;26.20;60.10
4910;DHT22;2470;49.868;8.660;2024-03-02T13:16:12;26.60;58.60
4910;DHT22;2470;49.868;8.660;2024-03-02T13:18:41;27.40;54.40
4910;DHT22;2470;49.868;8.660;2024-03-02T13:21:08;28.20;53.60
4910;DHT22;2470;49.868;8.660;2024-03-02T13:23:34;29.40;52.00
4910;DHT22;2470;49.868;8.660;2024-03-02T13:25:59;30.50;49.30
4910;DHT22;2470;49.868;8.660;2024-03-02T13:28:25;30.90;46.90
4910;DHT22;2470;49.868;8.660;2024-03-02T13:30:51;29.80;45.20
4910;DHT22;2470;49.868;8.660;2024-03-02T13:33:16;28.10;45.10
4910;DHT22;2470;49.868;8.660;2024-03-02T13:35:50;26.30;47.00
4910;DHT22;2470;49.868;8.660;2024-03-02T13:38:20;24.40;49.10
4910;DHT22;2470;49.868;8.660;2024-03-02T13:40:46;23.10;51.10
4910;DHT22;2470;49.868;8.660;2024-03-02T13:43:14;22.50;52.60
4910;DHT22;2470;49.868;8.660;2024-03-02T13:45:39;22.00;53.40
4910;DHT22;2470;49.868;8.660;2024-03-02T13:48:05;23.00;54.40
4910;DHT22;2470;49.868;8.660;2024-03-02T13:50:31;22.90;53.40
4910;DHT22;2470;49.868;8.660;2024-03-02T13:52:57;22.30;53.70
4910;DHT22;2470;49.868;8.660;2024-03-02T13:55:22;21.80;55.10
4910;DHT22;2470;49.868;8.660;2024-03-02T13:57:48;23.30;55.80
4910;DHT22;2470;49.868;8.660;2024-03-02T14:00:16;24.60;53.30
4910;DHT22;2470;49.868;8.660;2024-03-02T14:02:42;24.00;52.80
4910;DHT22;2470;49.868;8.660;2024-03-02T14:05:08;23.30;53.50
4910;DHT22;2470;49.868;8.660;2024-03-02T14:07:37;24.00;55.40
4910;DHT22;2470;49.868;8.660;2024-03-02T14:10:03;25.00;53.80
4910;DHT22;2470;49.868;8.660;2024-03-02T14:12:29;26.20;52.40
4910;DHT22;2470;49.868;8.660;2024-03-02T14:14:54;25.70;51.20
4910;DHT22;2470;49.868;8.660;2024-03-02T14:17:26;25.30;51.70
4910;DHT22;2470;49.868;8.660;2024-03-02T14:19:52;24.20;52.50
4910;DHT22;2470;49.868;8.660;2024-03-02T14:22:19;23.00;53.60
4910;DHT22;2470;49.868;8.660;2024-03-02T14:24:45;23.50;54.90
4910;DHT22;2470;49.868;8.660;2024-03-02T14:27:10;23.90;53.60
4910;DHT22;2470;49.868;8.660;2024-03-02T14:29:36;23.30;53.60
4910;DHT22;2470;49.868;8.660;2024-03-02T14:32:03;22.50;54.70
4910;DHT22;2470;49.868;8.660;2024-03-02T14:34:29;21.70;55.60
4910;DHT22;2470;49.868;8.660;2024-03-02T14:36:55;21.10;56.90
4910;DHT22;2470;49.868;8.660;2024-03-02T14:39:20;21.90;58.10
4910;DHT22;2470;49.868;8.660;2024-03-02T14:41:46;23.60;57.00
4910;DHT22;2470;49.868;8.660;2024-03-02T14:44:12;24.00;55.00
4910;DHT22;2470;49.868;8.660;2024-03-02T14:46:37;24.00;54.80
4910;DHT22;2470;49.868;8.660;2024-03-02T14:49:03;23.80;54.30
4910;DHT22;2470;49.868;8.660;2024-03-02T14:51:29;23.60;55.10
4910;DHT22;2470;49.868;8.660;2024-03-02T14:53:55;23.60;55.40
4910;DHT22;2470;49.868;8.660;2024-03-02T14:56:21;23.60;55.20
4910;DHT22;2470;49.868;8.660;2024-03-02T14:58:46;23.90;54.50
4910;DHT22;2470;49.868;8.660;2024-03-02T15:01:12;24.10;54.70
4910;DHT22;2470;49.868;8.660;2024-03-02T15:03:38;24.50;54.30
4910;DHT22;2470;49.868;8.660;2024-03-02T15:06:04;25.40;53.00
4910;DHT22;2470;49.868;8.660;2024-03-02T15:08:30;26.60;51.50
4910;DHT22;2470;49.868;8.660;2024-03-02T15:10:55;27.00;50.40
4910;DHT22;2470;49.868;8.660;2024-03-02T15:13:23;27.20;49.50
4910;DHT22;2470;49.868;8.660;2024-03-02T15:15:48;26.50;49.40
4910;DHT22;2470;49.868;8.660;2024-03-02T15:18:14;25.60;50.20
4910;DHT22;2470;49.868;8.660;2024-03-02T15:20:40;25.00;50.80
4910;DHT22;2470;49.868;8.660;2024-03-02T15:23:06;25.00;50.60
4910;DHT22;2470;49.868;8.660;2024-03-02T15:25:31;24.40;50.80
4910;DHT22;2470;49.868;8.660;2024-03-02T15:27:57;24.00;51.20
4910;DHT22;2470;49.868;8.660;2024-03-02T15:30:22;24.10;51.10
4910;DHT22;2470;49.868;8.660;2024-03-02T15:32:48;23.90;50.90
4910;DHT22;2470;49.868;8.660;2024-03-02T15:35:13;23.70;51.20
4910;DHT22;2470;49.868;8.660;2024-03-02T15:37:39;23.30;51.00
4910;DHT22;2470;49.868;8.660;2024-03-02T15:40:05;22.70;51.00
4910;DHT22;2470;49.868;8.660;2024-03-02T15:42:33;21.80;51.70
4910;DHT22;2470;49.868;8.660;2024-03-02T15:44:58;21.00;52.40
4910;DHT22;2470;49.868;8.660;2024-03-02T15:47:24;20.20;53.50
4910;DHT22;2470;49.868;8.660;2024-03-02T15:49:49;19.50;54.60
4910;DHT22;2470;49.868;8.660;2024-03-02T15:52:15;18.90;55.40
4910;DHT22;2470;49.868;8.660;2024-03-02T15:54:44;18.50;56.30
4910;DHT22;2470;49.868;8.660;2024-03-02T15:57:10;18.10;56.80
4910;DHT22;2470;49.868;8.660;2024-03-02T15:59:35;17.80;57.50
4910;DHT22;2470;49.868;8.660;2024-03-02T16:02:01;17.60;58.40
4910;DHT22;2470;49.868;8.660;2024-03-02T16:04:26;17.30;58.70
4910;DHT22;2470;49.868;8.660;2024-03-02T16:06:52;17.10;59.50
4910;DHT22;2470;49.868;8.660;2024-03-02T16:09:17;16.90;59.90
4910;DHT22;2470;49.868;8.660;2024-03-02T16:11:43;16.80;59.80
4910;DHT22;2470;49.868;8.660;2024-03-02T16:14:08;16.60;60.30